Time;durP1;ratioP1;P1;durP2;ratioP2;P2;SDS_P1;SDS_P2;PMS_P1;PMS_P2;Temp;Humidity;BMP_temperature;BMP_pressure;BME280_temperature;BME280_humidity;BME280_pressure;Samples;Min_cycle;Max_cycle;Signal;HPM_P1;HPM_P2
2023/09/04 00:00:53;;;;;;;5.60;4.75;;;15.90;99.90;;;;;;5070842;28;20045;-59
2023/09/04 00:03:20;;;;;;;5.80;4.70;;;15.80;99.90;;;;;;5070991;28;20403;-62
2023/09/04 00:05:46;;;;;;;6.03;5.03;;;15.80;99.90;;;;;;5070076;28;20570;-57
2023/09/04 00:08:12;;;;;;;5.47;4.60;;;15.70;99.90;;;;;;5071173;28;20037;-60
2023/09/04 00:10:37;;;;;;;4.85;4.18;;;15.70;99.90;;;;;;5071002;28;20075;-59
2023/09/04 00:13:03;;;;;;;6.78;4.97;;;15.70;99.90;;;;;;5071023;28;20045;-58
2023/09/04 00:15:29;;;;;;;5.18;4.57;;;15.60;99.90;;;;;;5071228;28;20104;-59
2023/09/04 00:17:55;;;;;;;6.25;4.65;;;15.60;99.90;;;;;;5070840;28;20041;-57
2023/09/04 00:20:21;;;;;;;6.30;4.70;;;15.60;99.90;;;;;;5070766;28;20115;-60
2023/09/04 00:22:47;;;;;;;5.60;4.70;;;15.50;99.90;;;;;;5070641;28;20429;-62
2023/09/04 00:25:13;;;;;;;5.72;4.57;;;15.50;99.90;;;;;;5071113;28;20128;-58
2023/09/04 00:27:38;;;;;;;6.05;5.05;;;15.50;99.90;;;;;;5070879;28;20059;-60
2023/09/04 00:30:05;;;;;;;6.07;5.47;;;15.50;99.90;;;;;;5071084;28;20727;-60
2023/09/04 00:32:31;;;;;;;8.63;5.00;;;15.50;99.90;;;;;;5070186;28;20397;-59
2023/09/04 00:34:56;;;;;;;6.65;5.40;;;15.50;99.90;;;;;;5070422;28;20079;-59
2023/09/04 00:37:22;;;;;;;6.80;6.07;;;15.50;99.90;;;;;;5070720;28;20052;-60
2023/09/04 00:39:48;;;;;;;8.05;5.95;;;15.40;99.90;;;;;;5052958;28;20411;-58
2023/09/04 00:42:15;;;;;;;6.80;5.20;;;15.40;99.90;;;;;;5073800;28;20131;-60
2023/09/04 00:44:44;;;;;;;7.28;6.32;;;15.40;99.90;;;;;;5070558;28;20039;-60
2023/09/04 00:47:14;;;;;;;8.35;6.13;;;15.40;99.90;;;;;;5074274;28;20056;-62
2023/09/04 00:49:42;;;;;;;8.15;6.20;;;15.50;99.90;;;;;;5072116;28;20116;-61
2023/09/04 00:52:08;;;;;;;8.77;6.78;;;15.40;99.90;;;;;;5072760;28;20048;-59
2023/09/04 00:54:35;;;;;;;8.00;6.78;;;15.40;99.90;;;;;;5074467;28;20388;-58
2023/09/04 00:57:03;;;;;;;6.97;6.20;;;15.30;99.90;;;;;;5072977;28;20036;-59
2023/09/04 00:59:29;;;;;;;8.65;6.82;;;15.30;99.90;;;;;;5074092;28;20580;-59
2023/09/04 01:01:58;;;;;;;8.13;6.80;;;15.30;99.90;;;;;;5071982;28;20040;-60
2023/09/04 01:04:24;;;;;;;8.90;7.43;;;15.30;99.90;;;;;;5074187;28;20036;-59
2023/09/04 01:06:50;;;;;;;10.25;7.07;;;15.40;99.90;;;;;;5072564;28;20036;-60
2023/09/04 01:09:16;;;;;;;9.48;6.78;;;15.30;99.90;;;;;;5073686;28;20043;-52
2023/09/04 01:11:55;;;;;;;8.20;7.40;;;15.30;99.90;;;;;;5073942;28;20413;-58
2023/09/04 01:14:24;;;;;;;9.93;7.60;;;15.30;99.90;;;;;;5073796;28;20033;-57
2023/09/04 01:16:52;;;;;;;7.85;7.05;;;15.20;99.90;;;;;;5073955;28;20044;-57
2023/09/04 01:19:18;;;;;;;8.65;7.60;;;15.30;99.90;;;;;;5073901;28;20098;-56
2023/09/04 01:21:44;;;;;;;8.80;7.90;;;15.20;99.90;;;;;;5073912;28;20106;-60
2023/09/04 01:24:10;;;;;;;9.18;7.38;;;15.20;99.90;;;;;;5073460;28;20036;-60
2023/09/04 01:26:53;;;;;;;8.35;7.55;;;15.20;99.90;;;;;;5072465;28;20047;-58
2023/09/04 01:29:29;;;;;;;8.50;7.70;;;15.20;99.90;;;;;;5073911;28;20028;-57
2023/09/04 01:32:25;;;;;;;8.70;7.53;;;15.20;99.90;;;;;;5073115;28;20052;-62
2023/09/04 01:34:52;;;;;;;8.27;7.47;;;15.20;99.90;;;;;;5073333;28;20122;-60
2023/09/04 01:37:19;;;;;;;9.13;8.23;;;15.10;99.90;;;;;;5072293;28;20058;-56
2023/09/04 01:39:48;;;;;;;8.43;7.63;;;15.10;99.90;;;;;;5073589;28;20445;-59
2023/09/04 01:42:13;;;;;;;8.18;7.22;;;15.10;99.90;;;;;;5073320;28;20107;-58
2023/09/04 01:44:41;;;;;;;8.20;7.40;;;15.10;99.90;;;;;;5073266;28;20132;-62
2023/09/04 01:47:07;;;;;;;7.85;7.05;;;15.00;99.90;;;;;;5073740;28;20036;-60
2023/09/04 01:49:33;;;;;;;11.55;7.35;;;15.00;99.90;;;;;;5073052;28;20048;-57
2023/09/04 01:52:00;;;;;;;8.05;7.25;;;15.00;99.90;;;;;;5073169;28;20142;-62
2023/09/04 01:54:26;;;;;;;7.82;7.03;;;15.00;99.90;;;;;;5073242;28;20032;-61
2023/09/04 01:56:52;;;;;;;9.73;7.38;;;15.00;99.90;;;;;;5073064;28;20051;-57
2023/09/04 01:59:18;;;;;;;11.40;8.02;;;15.00;99.90;;;;;;5073393;28;20379;-62
2023/09/04 02:01:43;;;;;;;7.90;7.03;;;14.90;99.90;;;;;;5073095;28;20110;-58
2023/09/04 02:04:09;;;;;;;8.23;7.43;;;14.90;99.90;;;;;;5072628;28;20032;-60
2023/09/04 02:06:35;;;;;;;8.27;7.38;;;14.90;99.90;;;;;;5072778;28;20029;-61
2023/09/04 02:09:00;;;;;;;7.80;7.00;;;14.90;99.90;;;;;;5073041;28;20075;-60
2023/09/04 02:11:26;;;;;;;7.80;6.80;;;14.90;99.90;;;;;;5071442;28;20203;-58
2023/09/04 02:13:52;;;;;;;8.75;7.65;;;14.80;99.90;;;;;;5071616;28;20036;-60
2023/09/04 02:16:18;;;;;;;8.25;7.45;;;14.80;99.90;;;;;;5072521;28;20036;-62
2023/09/04 02:18:43;;;;;;;7.90;7.10;;;14.70;99.90;;;;;;5071082;28;20043;-57
2023/09/04 02:21:09;;;;;;;8.88;7.82;;;14.70;99.90;;;;;;5073101;28;20033;-60
2023/09/04 02:23:35;;;;;;;8.20;7.28;;;14.70;99.90;;;;;;5072656;28;20033;-58
2023/09/04 02:26:02;;;;;;;10.15;8.27;;;14.70;99.90;;;;;;5071441;28;20045;-60
2023/09/04 02:28:30;;;;;;;8.98;8.07;;;14.60;99.90;;;;;;5072125;28;20036;-58
2023/09/04 02:30:56;;;;;;;8.55;7.68;;;14.70;99.90;;;;;;5072239;28;20125;-55
2023/09/04 02:33:22;;;;;;;8.98;7.82;;;14.60;99.90;;;;;;5070237;28;20261;-58
2023/09/04 02:35:48;;;;;;;9.90;7.45;;;14.60;99.90;;;;;;5072563;28;20060;-58
2023/09/04 02:38:14;;;;;;;10.57;7.97;;;14.50;99.90;;;;;;5072273;28;20522;-59
2023/09/04 02:40:39;;;;;;;10.07;7.85;;;14.60;99.90;;;;;;5072353;28;20115;-60
2023/09/04 02:43:05;;;;;;;9.45;7.93;;;14.60;99.90;;;;;;5071884;28;20047;-63
2023/09/04 02:45:33;;;;;;;8.88;7.93;;;14.50;99.90;;;;;;5071994;28;20036;-59
2023/09/04 02:47:58;;;;;;;9.77;8.25;;;14.50;99.90;;;;;;5071264;28;20071;-58
2023/09/04 02:50:24;;;;;;;9.43;8.43;;;14.50;99.90;;;;;;5071240;28;20071;-59
2023/09/04 02:52:49;;;;;;;9.52;8.60;;;14.40;99.90;;;;;;5069467;28;20073;-59
2023/09/04 02:55:15;;;;;;;8.93;8.02;;;14.40;99.90;;;;;;5071936;28;20503;-59
2023/09/04 02:57:41;;;;;;;9.57;7.97;;;14.40;99.90;;;;;;5072133;28;20376;-62
2023/09/04 03:00:07;;;;;;;8.85;7.95;;;14.30;99.90;;;;;;5069023;28;20035;-57
2023/09/04 03:02:34;;;;;;;9.65;8.43;;;14.40;99.90;;;;;;5071636;28;20115;-59
2023/09/04 03:04:59;;;;;;;9.93;7.97;;;14.30;99.90;;;;;;5071003;28;20036;-62
2023/09/04 03:07:26;;;;;;;9.35;8.35;;;14.30;99.90;;;;;;5071805;28;20598;-63
2023/09/04 03:09:57;;;;;;;9.23;8.32;;;14.20;99.90;;;;;;5071999;28;20056;-62
2023/09/04 03:12:27;;;;;;;9.98;8.50;;;14.30;99.90;;;;;;5071599;28;20369;-57
2023/09/04 03:15:01;;;;;;;8.93;8.02;;;14.20;99.90;;;;;;5071656;28;20059;-57
2023/09/04 03:17:32;;;;;;;9.98;8.98;;;14.20;99.90;;;;;;5071264;28;20041;-57
2023/09/04 03:19:58;;;;;;;9.05;8.15;;;14.20;99.90;;;;;;5070912;28;20040;-64
2023/09/04 03:22:25;;;;;;;9.95;8.10;;;14.10;99.90;;;;;;5071273;28;20037;-59
2023/09/04 03:24:52;;;;;;;8.57;7.68;;;14.10;99.90;;;;;;5071817;28;20036;-58
2023/09/04 03:27:17;;;;;;;9.65;8.63;;;14.10;99.90;;;;;;5070147;28;20088;-61
2023/09/04 03:29:43;;;;;;;9.95;8.27;;;14.00;99.90;;;;;;5071267;28;20072;-59
2023/09/04 03:32:09;;;;;;;9.18;8.23;;;13.90;99.90;;;;;;5070777;28;20091;-59
2023/09/04 03:34:36;;;;;;;8.80;7.90;;;13.90;99.90;;;;;;5069989;28;20036;-61
2023/09/04 03:37:02;;;;;;;9.32;8.43;;;13.90;99.90;;;;;;5071378;28;20515;-59
2023/09/04 03:39:28;;;;;;;9.70;8.45;;;13.80;99.90;;;;;;5071346;28;20587;-60
2023/09/04 03:41:54;;;;;;;11.18;10.07;;;13.80;99.90;;;;;;5071506;28;20036;-58
2023/09/04 03:44:19;;;;;;;10.57;9.40;;;13.80;99.90;;;;;;5071573;28;20047;-56
2023/09/04 03:46:45;;;;;;;10.00;9.00;;;13.80;99.90;;;;;;5071255;28;20086;-58
2023/09/04 03:49:12;;;;;;;11.10;9.98;;;13.80;99.90;;;;;;5071566;28;20060;-59
2023/09/04 03:51:38;;;;;;;10.40;9.30;;;13.80;99.90;;;;;;5070879;28;20121;-61
2023/09/04 03:54:04;;;;;;;10.60;9.60;;;13.80;99.90;;;;;;5071091;28;20097;-60
2023/09/04 03:56:30;;;;;;;11.40;10.10;;;13.80;99.90;;;;;;5071532;28;20044;-57
2023/09/04 03:58:57;;;;;;;10.25;8.77;;;13.80;99.90;;;;;;5069803;28;20433;-60
2023/09/04 04:01:23;;;;;;;10.38;9.38;;;13.70;99.90;;;;;;5069764;28;20075;-56
2023/09/04 04:03:50;;;;;;;9.63;8.52;;;13.70;99.90;;;;;;5069684;28;20079;-58
2023/09/04 04:06:16;;;;;;;9.90;8.90;;;13.70;99.90;;;;;;5071454;28;20047;-58
2023/09/04 04:08:42;;;;;;;10.00;9.00;;;13.70;99.90;;;;;;5069612;28;20041;-57
2023/09/04 04:11:08;;;;;;;10.05;9.07;;;13.60;99.90;;;;;;5071236;28;20133;-61
2023/09/04 04:13:33;;;;;;;11.23;10.07;;;13.60;99.90;;;;;;5071019;28;20158;-61
2023/09/04 04:16:00;;;;;;;12.13;9.52;;;13.60;99.90;;;;;;5073750;28;20040;-60
2023/09/04 04:18:27;;;;;;;10.40;9.30;;;13.60;99.90;;;;;;5074880;28;20040;-55
2023/09/04 04:20:56;;;;;;;10.88;8.82;;;13.50;99.90;;;;;;5073797;28;20049;-59
2023/09/04 04:23:23;;;;;;;9.85;8.82;;;13.50;99.90;;;;;;5074979;28;20487;-58
2023/09/04 04:25:49;;;;;;;9.68;8.75;;;13.40;99.90;;;;;;5054480;28;20384;-58
2023/09/04 04:28:19;;;;;;;10.13;9.05;;;13.40;99.90;;;;;;5075282;28;20064;-60
2023/09/04 04:30:45;;;;;;;10.23;9.13;;;13.40;99.90;;;;;;5074879;28;20048;-59
2023/09/04 04:33:12;;;;;;;10.50;9.50;;;13.40;99.90;;;;;;5074116;28;20118;-59
2023/09/04 04:35:41;;;;;;;11.07;6.05;;;13.40;99.90;;;;;;5071003;28;20079;-57
2023/09/04 04:38:07;;;;;;;10.98;9.55;;;13.30;99.90;;;;;;5073936;28;20549;-58
2023/09/04 04:40:33;;;;;;;9.90;8.90;;;13.30;99.90;;;;;;5073482;28;20454;-58
2023/09/04 04:42:59;;;;;;;10.13;9.15;;;13.30;99.90;;;;;;5074397;28;20036;-60
2023/09/04 04:45:25;;;;;;;10.70;9.20;;;13.30;99.90;;;;;;5073304;28;20387;-57
2023/09/04 04:47:51;;;;;;;10.80;9.70;;;13.20;99.90;;;;;;5074169;28;20029;-63
2023/09/04 04:50:17;;;;;;;13.82;10.32;;;13.30;99.90;;;;;;5074487;28;20044;-59
2023/09/04 04:52:42;;;;;;;10.45;9.35;;;13.20;99.90;;;;;;5074336;28;20528;-59
2023/09/04 04:55:11;;;;;;;11.38;6.82;;;13.20;99.90;;;;;;5074486;28;20521;-56
2023/09/04 04:57:37;;;;;;;11.30;10.07;;;13.20;99.90;;;;;;5073962;28;20048;-57
2023/09/04 05:00:07;;;;;;;11.73;10.55;;;13.20;99.90;;;;;;5074460;28;20037;-60
2023/09/04 05:02:36;;;;;;;11.52;10.43;;;13.20;99.90;;;;;;5073737;28;20040;-59
2023/09/04 05:05:02;;;;;;;12.40;11.15;;;13.20;99.90;;;;;;5074253;28;20033;-59
2023/09/04 05:07:29;;;;;;;12.02;10.82;;;13.30;99.90;;;;;;5074120;28;20426;-62
2023/09/04 05:09:56;;;;;;;11.77;10.65;;;13.20;99.90;;;;;;5072804;28;20040;-59
2023/09/04 05:12:22;;;;;;;12.20;10.98;;;13.30;99.90;;;;;;5073930;28;20043;-56
2023/09/04 05:14:48;;;;;;;12.70;11.40;;;13.20;99.90;;;;;;5074022;28;20475;-61
2023/09/04 05:17:14;;;;;;;12.68;7.18;;;13.30;99.90;;;;;;5073653;28;20058;-60
2023/09/04 05:19:40;;;;;;;11.70;10.55;;;13.20;99.90;;;;;;5073610;28;20086;-59
2023/09/04 05:22:06;;;;;;;12.40;11.00;;;13.30;99.90;;;;;;5073981;28;20090;-57
2023/09/04 05:24:33;;;;;;;12.02;10.57;;;13.30;99.90;;;;;;5073885;28;20048;-60
2023/09/04 05:26:59;;;;;;;13.68;11.25;;;13.30;99.90;;;;;;5072928;28;20490;-61
2023/09/04 05:29:24;;;;;;;12.70;7.55;;;13.30;99.90;;;;;;5073463;28;20032;-62
2023/09/04 05:31:51;;;;;;;11.82;10.63;;;13.40;99.90;;;;;;5072221;28;20110;-61
2023/09/04 05:34:17;;;;;;;12.63;11.35;;;13.30;99.90;;;;;;5071952;28;20120;-61
2023/09/04 05:36:42;;;;;;;12.27;10.93;;;13.40;99.90;;;;;;5073589;28;20131;-58
2023/09/04 05:39:09;;;;;;;11.95;10.75;;;13.40;99.90;;;;;;5073398;28;20459;-59
2023/09/04 05:41:36;;;;;;;12.52;11.20;;;13.50;99.90;;;;;;5073209;28;20079;-57
2023/09/04 05:44:02;;;;;;;12.75;11.43;;;13.40;99.90;;;;;;5072122;28;20037;-60
2023/09/04 05:46:28;;;;;;;11.95;10.70;;;13.50;99.90;;;;;;5072522;28;20499;-58
2023/09/04 05:48:53;;;;;;;12.45;11.15;;;13.50;99.90;;;;;;5073694;28;20067;-58
2023/09/04 05:51:19;;;;;;;13.05;11.75;;;13.50;99.90;;;;;;5073332;28;20043;-58
2023/09/04 05:53:45;;;;;;;13.80;11.40;;;13.60;99.90;;;;;;5073028;28;20045;-59
2023/09/04 05:56:11;;;;;;;13.32;11.93;;;13.60;99.90;;;;;;5073482;28;20048;-60
2023/09/04 05:58:50;;;;;;;11.85;10.68;;;13.60;99.90;;;;;;5072113;28;20032;-60
2023/09/04 06:01:18;;;;;;;11.35;7.47;;;13.70;99.90;;;;;;5071212;28;20118;-58
2023/09/04 06:03:45;;;;;;;13.30;11.23;;;13.70;99.90;;;;;;5072547;28;20377;-62
2023/09/04 06:06:10;;;;;;;12.15;10.93;;;13.80;99.90;;;;;;5072885;28;20048;-59
2023/09/04 06:08:37;;;;;;;12.45;11.15;;;13.90;99.90;;;;;;5071743;28;20032;-60
2023/09/04 06:11:03;;;;;;;11.95;10.75;;;14.00;99.90;;;;;;5073220;28;20044;-62
2023/09/04 06:13:30;;;;;;;12.85;11.10;;;14.20;99.90;;;;;;5071505;28;20511;-59
2023/09/04 06:15:56;;;;;;;11.60;10.50;;;14.20;99.90;;;;;;5071832;28;20055;-59
2023/09/04 06:18:23;;;;;;;12.23;11.02;;;14.30;99.90;;;;;;5071378;28;20488;-61
2023/09/04 06:20:50;;;;;;;12.57;11.30;;;14.30;99.90;;;;;;5072837;28;20047;-58
2023/09/04 06:23:16;;;;;;;12.00;10.80;;;14.30;99.90;;;;;;5070098;28;20498;-61
2023/09/04 06:25:43;;;;;;;12.10;10.90;;;14.30;99.90;;;;;;5072942;28;20044;-59
2023/09/04 06:28:12;;;;;;;12.50;11.20;;;14.30;99.90;;;;;;5071225;28;20036;-57
2023/09/04 06:30:39;;;;;;;13.27;11.25;;;14.40;99.90;;;;;;5072523;28;20036;-62
2023/09/04 06:33:05;;;;;;;12.65;11.15;;;14.40;99.90;;;;;;5071446;28;20044;-59
2023/09/04 06:35:31;;;;;;;14.45;9.45;;;14.50;99.90;;;;;;5072103;28;20040;-60
2023/09/04 06:37:58;;;;;;;11.55;10.35;;;14.40;99.90;;;;;;5071601;28;20032;-60
2023/09/04 06:40:24;;;;;;;14.35;8.85;;;14.50;99.90;;;;;;5070383;28;20119;-57
2023/09/04 06:42:53;;;;;;;12.00;10.70;;;14.50;99.90;;;;;;5070988;28;20039;-58
2023/09/04 06:45:19;;;;;;;11.60;10.50;;;14.50;99.90;;;;;;5072431;28;20032;-57
2023/09/04 06:47:45;;;;;;;12.20;8.20;;;14.50;99.90;;;;;;5070740;28;20040;-60
2023/09/04 06:50:11;;;;;;;12.48;11.00;;;14.60;99.90;;;;;;5072107;28;20032;-59
2023/09/04 06:52:37;;;;;;;12.35;11.05;;;14.60;99.90;;;;;;5070937;28;20040;-58
2023/09/04 06:55:04;;;;;;;11.75;10.60;;;14.60;99.90;;;;;;5072059;28;20396;-60
2023/09/04 06:57:30;;;;;;;11.82;10.48;;;14.70;99.90;;;;;;5071327;28;20044;-59
2023/09/04 06:59:57;;;;;;;15.25;8.73;;;14.80;99.90;;;;;;5069954;28;20040;-58
2023/09/04 07:02:23;;;;;;;11.90;10.48;;;14.80;99.90;;;;;;5070569;28;20040;-62
2023/09/04 07:04:49;;;;;;;12.43;11.10;;;14.80;99.90;;;;;;5071189;28;20495;-60
2023/09/04 07:07:14;;;;;;;13.90;10.23;;;14.90;99.90;;;;;;5071584;28;20114;-60
2023/09/04 07:09:40;;;;;;;12.43;10.77;;;14.90;99.90;;;;;;5070045;28;20119;-58
2023/09/04 07:12:07;;;;;;;11.50;10.30;;;15.00;99.90;;;;;;5071712;28;20097;-61
2023/09/04 07:14:32;;;;;;;12.00;10.65;;;15.20;99.90;;;;;;5071721;28;20133;-59
2023/09/04 07:16:59;;;;;;;11.55;10.15;;;15.20;99.90;;;;;;5070346;28;20112;-56
2023/09/04 07:19:24;;;;;;;11.52;10.35;;;15.20;99.90;;;;;;5070159;28;20032;-62
2023/09/04 07:21:50;;;;;;;13.35;10.32;;;15.30;99.90;;;;;;5071794;28;20051;-60
2023/09/04 07:24:16;;;;;;;11.82;10.63;;;15.40;99.90;;;;;;5070745;28;20036;-60
2023/09/04 07:26:42;;;;;;;10.98;8.18;;;15.40;99.90;;;;;;5071306;28;20048;-59
2023/09/04 07:29:08;;;;;;;10.95;9.27;;;15.50;99.90;;;;;;5071084;28;20119;-59
2023/09/04 07:31:34;;;;;;;11.07;9.50;;;15.60;99.90;;;;;;5070383;28;20116;-61
2023/09/04 07:34:01;;;;;;;10.85;9.52;;;15.70;99.90;;;;;;5070943;28;20142;-60
2023/09/04 07:36:27;;;;;;;12.20;9.85;;;15.70;99.90;;;;;;5070323;28;20372;-59
2023/09/04 07:38:52;;;;;;;11.07;9.02;;;15.90;99.90;;;;;;5071516;28;20169;-60
2023/09/04 07:41:18;;;;;;;10.40;9.15;;;15.90;99.90;;;;;;5071391;28;20032;-61
2023/09/04 07:43:44;;;;;;;11.40;9.95;;;16.00;99.90;;;;;;5071343;28;20040;-57
2023/09/04 07:46:09;;;;;;;12.65;8.68;;;16.10;99.90;;;;;;5071621;28;21387;-60
2023/09/04 07:48:35;;;;;;;10.82;9.18;;;16.10;99.90;;;;;;5070203;28;20037;-58
2023/09/04 07:51:06;;;;;;;12.07;9.48;;;16.20;99.90;;;;;;5071041;28;20045;-60
2023/09/04 07:53:31;;;;;;;10.48;8.75;;;16.30;99.90;;;;;;5070161;28;20104;-59
2023/09/04 07:55:57;;;;;;;11.38;8.55;;;16.40;99.90;;;;;;5070988;28;20111;-60
2023/09/04 07:58:23;;;;;;;11.35;9.20;;;16.40;99.90;;;;;;5071165;28;20034;-59
2023/09/04 08:00:50;;;;;;;9.07;8.18;;;16.60;99.90;;;;;;5070925;28;20136;-58
2023/09/04 08:03:16;;;;;;;10.48;8.50;;;16.60;99.90;;;;;;5071081;28;20029;-62
2023/09/04 08:05:42;;;;;;;9.15;8.15;;;16.70;99.90;;;;;;5071228;28;20056;-57
2023/09/04 08:08:11;;;;;;;11.27;7.35;;;16.70;99.90;;;;;;5071244;28;20093;-60
2023/09/04 08:10:43;;;;;;;9.95;8.95;;;16.80;99.90;;;;;;5071018;28;20036;-60
2023/09/04 08:13:14;;;;;;;10.45;7.80;;;16.90;99.90;;;;;;5067999;28;20507;-57
2023/09/04 08:15:43;;;;;;;8.70;7.80;;;17.00;99.90;;;;;;5071255;28;20040;-60
2023/09/04 08:18:09;;;;;;;10.80;7.82;;;17.00;99.90;;;;;;5070992;28;20036;-59
2023/09/04 08:20:36;;;;;;;8.50;7.13;;;17.10;99.90;;;;;;5070904;28;20044;-60
2023/09/04 08:23:02;;;;;;;8.80;7.65;;;17.20;99.90;;;;;;5071057;28;20032;-60
2023/09/04 08:25:28;;;;;;;8.35;7.15;;;17.30;99.90;;;;;;5070630;28;20035;-59
2023/09/04 08:27:54;;;;;;;9.05;6.90;;;17.30;99.90;;;;;;5070876;28;20036;-62
2023/09/04 08:30:20;;;;;;;8.52;6.80;;;17.40;99.90;;;;;;5053135;28;20044;-58
2023/09/04 08:32:46;;;;;;;7.80;6.97;;;17.50;99.90;;;;;;5070178;28;20059;-60
2023/09/04 08:35:12;;;;;;;10.20;7.70;;;17.50;99.90;;;;;;5071047;28;20041;-61
2023/09/04 08:37:39;;;;;;;9.25;7.53;;;17.70;99.90;;;;;;5069660;28;20044;-60
2023/09/04 08:40:05;;;;;;;7.65;6.70;;;17.80;99.90;;;;;;5070345;28;20036;-57
2023/09/04 08:42:32;;;;;;;8.02;6.68;;;17.80;99.90;;;;;;5070770;28;20123;-62
2023/09/04 08:44:58;;;;;;;7.43;6.03;;;18.00;99.90;;;;;;5070383;28;20041;-57
2023/09/04 08:47:25;;;;;;;7.82;6.55;;;18.10;99.90;;;;;;5070938;28;20537;-60
2023/09/04 08:49:57;;;;;;;9.50;7.35;;;18.20;99.90;;;;;;5070797;28;20045;-58
2023/09/04 08:52:23;;;;;;;8.13;6.47;;;18.30;99.90;;;;;;5070617;28;20439;-59
2023/09/04 08:54:50;;;;;;;7.57;6.18;;;18.30;99.90;;;;;;5069256;28;20036;-60
2023/09/04 08:57:17;;;;;;;8.00;6.55;;;18.50;99.90;;;;;;5070673;28;20549;-61
2023/09/04 08:59:42;;;;;;;7.15;6.38;;;18.60;99.90;;;;;;5070454;28;20171;-59
2023/09/04 09:02:15;;;;;;;8.10;6.13;;;18.60;99.90;;;;;;5071760;28;21396;-59
2023/09/04 09:04:41;;;;;;;8.10;5.82;;;18.80;99.90;;;;;;5074007;28;20098;-57
2023/09/04 09:07:08;;;;;;;6.95;5.25;;;19.00;99.90;;;;;;5074236;28;20047;-60
2023/09/04 09:09:37;;;;;;;8.88;6.05;;;19.10;99.90;;;;;;5073791;28;20094;-58
2023/09/04 09:12:03;;;;;;;7.28;5.32;;;19.20;99.90;;;;;;5073819;28;20124;-57
2023/09/04 09:14:31;;;;;;;8.02;5.32;;;19.30;99.90;;;;;;5074000;28;20475;-58
2023/09/04 09:17:05;;;;;;;7.53;5.07;;;19.50;99.90;;;;;;5072630;28;20044;-58
2023/09/04 09:19:38;;;;;;;6.38;4.63;;;19.70;99.90;;;;;;5074009;28;20122;-58
2023/09/04 09:22:10;;;;;;;7.57;4.90;;;19.90;99.90;;;;;;5072430;28;20040;-59
2023/09/04 09:24:54;;;;;;;7.00;4.93;;;20.10;99.90;;;;;;5073033;28;20540;-61
2023/09/04 09:27:22;;;;;;;9.60;4.70;;;20.20;99.90;;;;;;5072369;28;20033;-58
2023/09/04 09:29:48;;;;;;;6.75;4.18;;;20.30;99.90;;;;;;5070311;28;20297;-56
2023/09/04 09:32:19;;;;;;;7.65;4.15;;;20.50;99.90;;;;;;5071578;28;20049;-57
2023/09/04 09:34:52;;;;;;;5.00;3.60;;;20.70;99.90;;;;;;5072786;28;20052;-61
2023/09/04 09:37:20;;;;;;;5.50;4.18;;;20.80;99.90;;;;;;5074031;28;20105;-61
2023/09/04 09:39:45;;;;;;;5.93;3.78;;;20.90;99.90;;;;;;5074214;28;20502;-60
2023/09/04 09:42:12;;;;;;;7.93;3.60;;;21.00;99.90;;;;;;5073540;28;20032;-60
2023/09/04 09:44:37;;;;;;;4.80;3.40;;;21.00;99.90;;;;;;5073634;28;20044;-58
2023/09/04 09:47:07;;;;;;;7.25;3.75;;;21.20;99.90;;;;;;5054967;28;20514;-58
2023/09/04 09:49:39;;;;;;;6.32;3.70;;;21.30;99.90;;;;;;5070078;28;20166;-56
2023/09/04 09:52:07;;;;;;;5.68;3.60;;;21.40;99.90;;;;;;5071095;28;20095;-56
2023/09/04 09:54:39;;;;;;;4.85;3.45;;;21.50;99.90;;;;;;5054829;28;20091;-56
2023/09/04 09:57:08;;;;;;;5.55;3.40;;;21.70;99.90;;;;;;5073253;28;20392;-57
2023/09/04 09:59:47;;;;;;;5.85;3.08;;;21.70;99.90;;;;;;5073125;28;20380;-59
2023/09/04 10:02:21;;;;;;;5.38;2.72;;;21.80;99.90;;;;;;5072771;28;20070;-57
2023/09/04 10:04:47;;;;;;;4.60;2.95;;;21.90;99.90;;;;;;5072639;28;20041;-58
2023/09/04 10:07:17;;;;;;;4.38;2.83;;;22.00;99.90;;;;;;5067522;28;20089;-57
2023/09/04 10:09:51;;;;;;;4.93;2.80;;;22.00;99.90;;;;;;5070499;28;20507;-58
2023/09/04 10:12:41;;;;;;;7.50;3.20;;;22.00;99.90;;;;;;5070759;28;20041;-58
2023/09/04 10:15:08;;;;;;;5.63;3.20;;;22.20;99.90;;;;;;5068910;28;20032;-58
2023/09/04 10:17:48;;;;;;;4.72;3.00;;;22.20;99.90;;;;;;5069399;28;20078;-57
2023/09/04 10:20:14;;;;;;;5.18;2.75;;;22.40;99.90;;;;;;5065153;28;20028;-58
2023/09/04 10:22:47;;;;;;;4.70;2.90;;;22.50;99.90;;;;;;5069787;28;20028;-54
2023/09/04 10:25:21;;;;;;;5.40;3.30;;;22.50;99.90;;;;;;5070738;28;20085;-56
2023/09/04 10:28:02;;;;;;;4.82;3.17;;;22.40;99.90;;;;;;5069123;28;20055;-59
2023/09/04 10:30:31;;;;;;;5.80;2.80;;;22.40;99.90;;;;;;5070196;28;20498;-57
2023/09/04 10:32:58;;;;;;;5.65;2.95;;;22.40;99.90;;;;;;5068819;28;20063;-55
2023/09/04 10:35:25;;;;;;;4.65;2.60;;;22.50;99.90;;;;;;5070914;28;20075;-58
2023/09/04 10:37:52;;;;;;;4.45;2.40;;;22.60;99.90;;;;;;5069748;28;20039;-58
2023/09/04 10:40:18;;;;;;;4.30;2.50;;;22.60;99.90;;;;;;5070827;28;20041;-57
2023/09/04 10:42:44;;;;;;;4.07;2.30;;;22.70;99.90;;;;;;5069510;28;20040;-59
2023/09/04 10:45:15;;;;;;;5.93;2.70;;;22.70;99.90;;;;;;5069059;28;20067;-59
2023/09/04 10:47:50;;;;;;;3.78;2.25;;;22.80;99.90;;;;;;5069467;28;20037;-56
2023/09/04 10:50:39;;;;;;;4.75;2.30;;;22.80;99.90;;;;;;5067136;28;20059;-58
2023/09/04 10:53:07;;;;;;;3.90;2.03;;;22.80;99.90;;;;;;5067510;28;20115;-62
2023/09/04 10:55:37;;;;;;;4.00;2.25;;;23.00;99.90;;;;;;5066071;28;20066;-60
2023/09/04 10:58:07;;;;;;;4.38;2.10;;;23.20;99.90;;;;;;5068598;28;20120;-58
2023/09/04 11:00:35;;;;;;;6.15;2.20;;;23.30;99.90;;;;;;5069076;28;20044;-59
2023/09/04 11:03:23;;;;;;;5.38;2.30;;;23.50;99.90;;;;;;5067375;28;20036;-56
2023/09/04 11:06:07;;;;;;;5.18;2.70;;;23.70;99.90;;;;;;5068062;28;20095;-58
2023/09/04 11:08:40;;;;;;;5.18;2.60;;;23.90;99.90;;;;;;5069040;28;20056;-58
2023/09/04 11:11:08;;;;;;;4.75;2.63;;;24.00;99.90;;;;;;5070069;28;20032;-59
2023/09/04 11:13:37;;;;;;;5.72;2.50;;;24.10;99.90;;;;;;5069178;28;20040;-58
2023/09/04 11:16:04;;;;;;;6.82;2.47;;;24.30;99.90;;;;;;5069119;28;20056;-56
2023/09/04 11:18:31;;;;;;;4.78;2.05;;;24.30;99.90;;;;;;5068218;28;20028;-57
2023/09/04 11:20:59;;;;;;;3.95;2.60;;;24.40;99.90;;;;;;5066729;28;20098;-56
2023/09/04 11:23:26;;;;;;;5.93;2.25;;;24.50;99.90;;;;;;5068432;28;20360;-57
2023/09/04 11:25:52;;;;;;;5.18;2.30;;;24.60;99.90;;;;;;5068902;28;20105;-57
2023/09/04 11:28:26;;;;;;;7.38;2.17;;;24.70;99.90;;;;;;5068195;28;20078;-61
2023/09/04 11:30:57;;;;;;;3.75;2.08;;;24.90;99.90;;;;;;5068074;28;20048;-55
2023/09/04 11:33:24;;;;;;;5.28;2.50;;;25.00;99.90;;;;;;5068460;28;20059;-55
2023/09/04 11:35:59;;;;;;;5.40;2.25;;;25.10;99.90;;;;;;5069692;28;20052;-57
2023/09/04 11:38:27;;;;;;;3.83;2.30;;;25.10;99.90;;;;;;5066622;28;20036;-60
2023/09/04 11:40:53;;;;;;;5.53;2.65;;;25.10;99.90;;;;;;5063784;28;20036;-58
2023/09/04 11:43:19;;;;;;;5.82;2.97;;;25.20;99.90;;;;;;5070490;28;20098;-56
2023/09/04 11:45:45;;;;;;;4.47;2.53;;;25.40;99.90;;;;;;5070821;28;20033;-58
2023/09/04 11:48:13;;;;;;;4.97;2.58;;;25.50;99.90;;;;;;5066749;28;20422;-56
2023/09/04 11:50:39;;;;;;;4.30;2.00;;;25.60;99.90;;;;;;5069108;28;20507;-58
2023/09/04 11:53:06;;;;;;;3.72;1.77;;;25.70;99.90;;;;;;5070515;28;20044;-59
2023/09/04 11:55:33;;;;;;;3.80;2.10;;;25.80;99.90;;;;;;5070339;28;20052;-56
2023/09/04 11:58:02;;;;;;;4.05;1.90;;;25.90;99.90;;;;;;5070390;28;20441;-56
2023/09/04 12:00:28;;;;;;;4.10;2.05;;;26.00;99.90;;;;;;5067024;28;20037;-56
2023/09/04 12:02:53;;;;;;;5.30;2.20;;;26.10;99.90;;;;;;5069777;28;20081;-59
2023/09/04 12:05:20;;;;;;;5.47;2.67;;;26.10;99.90;;;;;;5070390;28;20032;-56
2023/09/04 12:07:46;;;;;;;3.42;1.90;;;26.20;99.90;;;;;;5068900;28;20037;-57
2023/09/04 12:10:12;;;;;;;4.05;2.25;;;26.20;99.90;;;;;;5071146;28;20036;-60
2023/09/04 12:12:38;;;;;;;2.58;1.50;;;26.30;99.90;;;;;;5071148;28;20047;-60
2023/09/04 12:15:04;;;;;;;4.63;1.30;;;26.40;99.90;;;;;;5069660;28;20095;-57
2023/09/04 12:17:31;;;;;;;3.40;1.77;;;26.60;99.90;;;;;;5069964;28;20059;-63
2023/09/04 12:19:57;;;;;;;3.55;1.73;;;26.80;99.90;;;;;;5070147;28;20141;-58
2023/09/04 12:22:22;;;;;;;4.00;1.80;;;26.90;99.90;;;;;;5070536;28;20051;-57
2023/09/04 12:25:07;;;;;;;3.83;1.75;;;27.00;99.90;;;;;;5072375;28;20041;-59
2023/09/04 12:27:35;;;;;;;4.03;2.03;;;27.20;99.90;;;;;;5068728;28;20041;-59
2023/09/04 12:30:01;;;;;;;4.30;2.05;;;27.30;99.90;;;;;;5068593;28;20032;-59
2023/09/04 12:32:27;;;;;;;4.95;1.95;;;27.40;99.90;;;;;;5072560;28;20045;-59
2023/09/04 12:35:04;;;;;;;3.72;1.98;;;27.60;99.90;;;;;;5070191;28;20032;-55
2023/09/04 12:37:32;;;;;;;3.80;1.83;;;27.60;99.90;;;;;;5074195;28;20086;-58
2023/09/04 12:39:58;;;;;;;3.78;1.55;;;27.40;99.90;;;;;;5071223;28;20392;-57
2023/09/04 12:42:23;;;;;;;4.15;1.92;;;27.40;99.90;;;;;;5054074;28;20040;-59